KAAF/AAF METAR and TAF weather

Enter ICAO airport designator
Station Type Date Time Source
KAAF METAR 2021/02/27 08:53 UTC NOAA

KAAF 270853Z AUTO 17006KT 1/2SM FG VV002 19/19 A3010 RMK AO2 SLP191 T01890189 56004


Station Type Date Time Source
KAAF Decoded METAR 2021/02/27 08:53 UTC NOAA

APALACHICOLA MUNICIPAL AIRPORT, FL, United States (KAAF) 29-44N 085-01W 5M
Feb 27, 2021 - 03:53 AM EST / 2021.02.27 0853 UTC
Wind: from the S (170 degrees) at 7 MPH (6 KT):0
Visibility: 1/2 mile(s):0
Sky conditions: obscured
Weather: fog
Temperature: 66.0 F (18.9 C)
Dew Point: 66.0 F (18.9 C)
Relative Humidity: 100%
Pressure (altimeter): 30.1 in. Hg (1019 hPa)
Pressure tendency: 0.01 inches (0.4 hPa) lower than three hours ago
ob: KAAF 270853Z AUTO 17006KT 1/2SM FG VV002 19/19 A3010 RMK AO2 SLP191 T01890189 56004
cycle: 9

Station Type Date Time Source
KAAF TAF UTC NOAA

Error!

Example: see airport list